sensor_id;sensor_type;location;lat;lon;timestamp;temperature;humidity
40848;DHT22;26570;50.962;5.340;2023-02-26T01:03:41;-0.70;99.90
40848;DHT22;26570;50.962;5.340;2023-02-26T01:06:33;-0.70;99.90
40848;DHT22;26570;50.962;5.340;2023-02-26T01:09:29;-0.60;99.90
40848;DHT22;26570;50.962;5.340;2023-02-26T01:12:15;-2.00;99.90
40848;DHT22;26570;50.962;5.340;2023-02-26T01:15:02;-0.60;99.90
40848;DHT22;26570;50.962;5.340;2023-02-26T01:18:13;-0.60;99.90
40848;DHT22;26570;50.962;5.340;2023-02-26T01:21:04;-0.60;99.90
40848;DHT22;26570;50.962;5.340;2023-02-26T01:23:51;-0.70;99.90
40848;DHT22;26570;50.962;5.340;2023-02-26T01:26:38;-0.60;99.90
40848;DHT22;26570;50.962;5.340;2023-02-26T01:29:24;-0.60;99.90
40848;DHT22;26570;50.962;5.340;2023-02-26T01:32:27;-0.50;99.90
40848;DHT22;26570;50.962;5.340;2023-02-26T01:42:26;-0.70;99.90
40848;DHT22;26570;50.962;5.340;2023-02-26T01:45:16;-0.70;99.90
40848;DHT22;26570;50.962;5.340;2023-02-26T01:48:17;-0.70;99.90
40848;DHT22;26570;50.962;5.340;2023-02-26T01:51:42;-0.60;99.90
40848;DHT22;26570;50.962;5.340;2023-02-26T01:54:37;-1.50;99.90
40848;DHT22;26570;50.962;5.340;2023-02-26T01:57:25;-0.50;99.90
40848;DHT22;26570;50.962;5.340;2023-02-26T02:00:13;-0.50;99.90
40848;DHT22;26570;50.962;5.340;2023-02-26T02:03:02;-0.50;99.90
40848;DHT22;26570;50.962;5.340;2023-02-26T02:05:59;-0.60;99.90
40848;DHT22;26570;50.962;5.340;2023-02-26T02:08:51;-0.50;99.90
40848;DHT22;26570;50.962;5.340;2023-02-26T02:11:52;-0.60;99.90
40848;DHT22;26570;50.962;5.340;2023-02-26T02:25:10;0.00;99.90
40848;DHT22;26570;50.962;5.340;2023-02-26T02:27:52;0.00;99.90
40848;DHT22;26570;50.962;5.340;2023-02-26T02:37:18;0.20;99.90
40848;DHT22;26570;50.962;5.340;2023-02-26T02:40:15;0.20;99.90
40848;DHT22;26570;50.962;5.340;2023-02-26T02:43:12;0.20;99.90
40848;DHT22;26570;50.962;5.340;2023-02-26T02:46:08;0.30;99.90
40848;DHT22;26570;50.962;5.340;2023-02-26T02:49:33;0.20;99.90
40848;DHT22;26570;50.962;5.340;2023-02-26T02:52:30;0.10;99.90
40848;DHT22;26570;50.962;5.340;2023-02-26T02:55:23;0.30;99.90
40848;DHT22;26570;50.962;5.340;2023-02-26T02:58:13;0.40;99.90
40848;DHT22;26570;50.962;5.340;2023-02-26T03:01:05;0.50;99.90
40848;DHT22;26570;50.962;5.340;2023-02-26T03:04:01;0.40;99.90
40848;DHT22;26570;50.962;5.340;2023-02-26T03:06:49;0.20;99.90
40848;DHT22;26570;50.962;5.340;2023-02-26T03:09:35;0.30;99.90
40848;DHT22;26570;50.962;5.340;2023-02-26T03:12:20;0.50;99.90
40848;DHT22;26570;50.962;5.340;2023-02-26T03:15:06;0.50;99.90
40848;DHT22;26570;50.962;5.340;2023-02-26T03:21:21;0.50;99.90
40848;DHT22;26570;50.962;5.340;2023-02-26T03:24:34;0.40;99.90
40848;DHT22;26570;50.962;5.340;2023-02-26T03:27:58;0.40;99.90
40848;DHT22;26570;50.962;5.340;2023-02-26T03:30:57;0.40;99.90
40848;DHT22;26570;50.962;5.340;2023-02-26T03:34:02;0.50;99.90
40848;DHT22;26570;50.962;5.340;2023-02-26T03:37:02;0.10;99.90
40848;DHT22;26570;50.962;5.340;2023-02-26T03:39:52;0.40;99.90
40848;DHT22;26570;50.962;5.340;2023-02-26T03:43:07;0.30;99.90
40848;DHT22;26570;50.962;5.340;2023-02-26T03:46:22;0.40;99.90
40848;DHT22;26570;50.962;5.340;2023-02-26T03:49:35;0.60;99.90
40848;DHT22;26570;50.962;5.340;2023-02-26T03:52:26;0.60;99.90
40848;DHT22;26570;50.962;5.340;2023-02-26T03:55:21;0.40;99.90
40848;DHT22;26570;50.962;5.340;2023-02-26T03:58:08;0.30;99.90
40848;DHT22;26570;50.962;5.340;2023-02-26T04:01:00;0.30;99.90
40848;DHT22;26570;50.962;5.340;2023-02-26T04:03:52;0.50;99.90
40848;DHT22;26570;50.962;5.340;2023-02-26T04:06:39;0.30;99.90
40848;DHT22;26570;50.962;5.340;2023-02-26T04:09:26;0.20;99.90
40848;DHT22;26570;50.962;5.340;2023-02-26T04:12:12;0.10;99.90
40848;DHT22;26570;50.962;5.340;2023-02-26T04:14:58;0.30;99.90
40848;DHT22;26570;50.962;5.340;2023-02-26T04:17:43;0.20;99.90
40848;DHT22;26570;50.962;5.340;2023-02-26T04:20:29;0.20;99.90
40848;DHT22;26570;50.962;5.340;2023-02-26T04:23:15;0.20;99.90
40848;DHT22;26570;50.962;5.340;2023-02-26T04:26:00;0.20;99.90
40848;DHT22;26570;50.962;5.340;2023-02-26T04:28:48;0.40;99.90
40848;DHT22;26570;50.962;5.340;2023-02-26T04:31:56;0.30;99.90
40848;DHT22;26570;50.962;5.340;2023-02-26T04:34:45;0.20;99.90
40848;DHT22;26570;50.962;5.340;2023-02-26T04:37:30;0.20;99.90
40848;DHT22;26570;50.962;5.340;2023-02-26T04:40:19;0.20;99.90
40848;DHT22;26570;50.962;5.340;2023-02-26T04:43:05;0.10;99.90
40848;DHT22;26570;50.962;5.340;2023-02-26T04:45:50;0.20;99.90
40848;DHT22;26570;50.962;5.340;2023-02-26T04:48:38;0.20;99.90
40848;DHT22;26570;50.962;5.340;2023-02-26T04:51:24;0.20;99.90
40848;DHT22;26570;50.962;5.340;2023-02-26T04:54:10;0.10;99.90
40848;DHT22;26570;50.962;5.340;2023-02-26T04:57:18;0.00;99.90
40848;DHT22;26570;50.962;5.340;2023-02-26T05:00:04;0.10;99.90
40848;DHT22;26570;50.962;5.340;2023-02-26T05:03:17;0.20;99.90
40848;DHT22;26570;50.962;5.340;2023-02-26T05:06:03;0.20;99.90
40848;DHT22;26570;50.962;5.340;2023-02-26T05:08:51;0.10;99.90
40848;DHT22;26570;50.962;5.340;2023-02-26T05:11:37;0.00;99.90
40848;DHT22;26570;50.962;5.340;2023-02-26T05:14:23;0.00;99.90
40848;DHT22;26570;50.962;5.340;2023-02-26T05:17:08;0.00;99.90
40848;DHT22;26570;50.962;5.340;2023-02-26T05:19:54;0.00;99.90
40848;DHT22;26570;50.962;5.340;2023-02-26T05:22:39;0.00;99.90
40848;DHT22;26570;50.962;5.340;2023-02-26T05:25:25;0.00;99.90
40848;DHT22;26570;50.962;5.340;2023-02-26T05:28:11;-0.10;99.90
40848;DHT22;26570;50.962;5.340;2023-02-26T05:30:57;0.00;99.90
40848;DHT22;26570;50.962;5.340;2023-02-26T05:33:43;-0.10;99.90
40848;DHT22;26570;50.962;5.340;2023-02-26T05:36:29;-0.10;99.90
40848;DHT22;26570;50.962;5.340;2023-02-26T05:39:36;-0.20;99.90
40848;DHT22;26570;50.962;5.340;2023-02-26T05:42:22;-0.30;99.90
40848;DHT22;26570;50.962;5.340;2023-02-26T05:45:31;-0.30;99.90
40848;DHT22;26570;50.962;5.340;2023-02-26T05:48:16;-0.30;99.90
40848;DHT22;26570;50.962;5.340;2023-02-26T05:51:02;-0.10;99.90
40848;DHT22;26570;50.962;5.340;2023-02-26T05:53:55;-0.10;99.90
40848;DHT22;26570;50.962;5.340;2023-02-26T05:56:41;-0.20;99.90
40848;DHT22;26570;50.962;5.340;2023-02-26T05:59:27;-0.20;99.90
40848;DHT22;26570;50.962;5.340;2023-02-26T06:02:13;-0.20;99.90
40848;DHT22;26570;50.962;5.340;2023-02-26T06:05:04;-0.30;99.90
40848;DHT22;26570;50.962;5.340;2023-02-26T06:07:51;-0.30;99.90
40848;DHT22;26570;50.962;5.340;2023-02-26T06:10:36;-0.20;99.90
40848;DHT22;26570;50.962;5.340;2023-02-26T06:13:22;-0.20;99.90
40848;DHT22;26570;50.962;5.340;2023-02-26T06:16:08;-0.30;99.90
40848;DHT22;26570;50.962;5.340;2023-02-26T06:18:56;-0.30;99.90
40848;DHT22;26570;50.962;5.340;2023-02-26T06:21:44;-0.30;99.90
40848;DHT22;26570;50.962;5.340;2023-02-26T06:24:29;-0.30;99.90
40848;DHT22;26570;50.962;5.340;2023-02-26T06:27:15;-0.30;99.90
40848;DHT22;26570;50.962;5.340;2023-02-26T06:30:01;-0.30;99.90
40848;DHT22;26570;50.962;5.340;2023-02-26T06:32:47;-0.20;99.90
40848;DHT22;26570;50.962;5.340;2023-02-26T06:35:55;-0.10;99.90
40848;DHT22;26570;50.962;5.340;2023-02-26T06:38:41;-0.20;99.90
40848;DHT22;26570;50.962;5.340;2023-02-26T06:41:28;-0.30;99.90
40848;DHT22;26570;50.962;5.340;2023-02-26T06:44:14;-0.20;99.90
40848;DHT22;26570;50.962;5.340;2023-02-26T06:46:59;-0.30;99.90
40848;DHT22;26570;50.962;5.340;2023-02-26T06:49:48;-0.30;99.90
40848;DHT22;26570;50.962;5.340;2023-02-26T06:52:56;-0.40;99.90
40848;DHT22;26570;50.962;5.340;2023-02-26T06:55:48;-0.30;99.90
40848;DHT22;26570;50.962;5.340;2023-02-26T06:58:35;-0.20;99.90
40848;DHT22;26570;50.962;5.340;2023-02-26T07:01:21;-0.10;99.90
40848;DHT22;26570;50.962;5.340;2023-02-26T07:04:08;-0.10;99.90
40848;DHT22;26570;50.962;5.340;2023-02-26T07:06:54;-0.10;99.90
40848;DHT22;26570;50.962;5.340;2023-02-26T07:09:40;0.00;99.90
40848;DHT22;26570;50.962;5.340;2023-02-26T07:12:25;0.10;99.90
40848;DHT22;26570;50.962;5.340;2023-02-26T07:15:10;0.20;99.90
40848;DHT22;26570;50.962;5.340;2023-02-26T07:18:01;0.40;99.90
40848;DHT22;26570;50.962;5.340;2023-02-26T07:21:11;0.40;99.90
40848;DHT22;26570;50.962;5.340;2023-02-26T07:23:56;0.70;99.90
40848;DHT22;26570;50.962;5.340;2023-02-26T07:27:07;0.90;99.90
40848;DHT22;26570;50.962;5.340;2023-02-26T07:29:54;1.00;99.90
40848;DHT22;26570;50.962;5.340;2023-02-26T07:32:40;1.20;99.90
40848;DHT22;26570;50.962;5.340;2023-02-26T07:35:30;1.40;99.90
40848;DHT22;26570;50.962;5.340;2023-02-26T07:38:18;1.60;99.90
40848;DHT22;26570;50.962;5.340;2023-02-26T07:41:04;1.90;99.90
40848;DHT22;26570;50.962;5.340;2023-02-26T07:44:13;2.50;99.90
40848;DHT22;26570;50.962;5.340;2023-02-26T07:47:01;3.40;99.90
40848;DHT22;26570;50.962;5.340;2023-02-26T07:49:56;2.60;99.90
40848;DHT22;26570;50.962;5.340;2023-02-26T07:52:43;2.50;99.90
40848;DHT22;26570;50.962;5.340;2023-02-26T07:55:35;3.00;99.90
40848;DHT22;26570;50.962;5.340;2023-02-26T07:58:25;2.60;99.90
40848;DHT22;26570;50.962;5.340;2023-02-26T08:01:13;2.80;99.90
40848;DHT22;26570;50.962;5.340;2023-02-26T08:04:01;2.70;99.90
40848;DHT22;26570;50.962;5.340;2023-02-26T08:06:49;2.60;99.90
40848;DHT22;26570;50.962;5.340;2023-02-26T08:09:36;2.80;99.90
40848;DHT22;26570;50.962;5.340;2023-02-26T08:12:24;3.50;99.90
40848;DHT22;26570;50.962;5.340;2023-02-26T08:15:12;4.00;99.90
40848;DHT22;26570;50.962;5.340;2023-02-26T08:17:58;4.30;99.90
40848;DHT22;26570;50.962;5.340;2023-02-26T08:20:43;4.60;99.90
40848;DHT22;26570;50.962;5.340;2023-02-26T08:23:30;5.20;99.90
40848;DHT22;26570;50.962;5.340;2023-02-26T08:26:16;5.40;99.90
40848;DHT22;26570;50.962;5.340;2023-02-26T08:29:03;6.00;99.90
40848;DHT22;26570;50.962;5.340;2023-02-26T08:31:49;6.20;99.90
40848;DHT22;26570;50.962;5.340;2023-02-26T08:34:34;5.70;99.90
40848;DHT22;26570;50.962;5.340;2023-02-26T08:37:19;5.40;99.90
40848;DHT22;26570;50.962;5.340;2023-02-26T08:40:08;5.00;99.90
40848;DHT22;26570;50.962;5.340;2023-02-26T08:43:16;4.70;99.90
40848;DHT22;26570;50.962;5.340;2023-02-26T08:46:01;4.80;99.90
40848;DHT22;26570;50.962;5.340;2023-02-26T08:48:49;4.70;99.90
40848;DHT22;26570;50.962;5.340;2023-02-26T08:51:57;4.90;99.90
40848;DHT22;26570;50.962;5.340;2023-02-26T08:54:41;4.90;99.90
40848;DHT22;26570;50.962;5.340;2023-02-26T08:57:26;4.80;99.90
40848;DHT22;26570;50.962;5.340;2023-02-26T09:00:12;4.70;99.90
40848;DHT22;26570;50.962;5.340;2023-02-26T09:03:01;4.70;99.90
40848;DHT22;26570;50.962;5.340;2023-02-26T09:05:46;5.00;99.90
40848;DHT22;26570;50.962;5.340;2023-02-26T09:08:31;5.30;99.90
40848;DHT22;26570;50.962;5.340;2023-02-26T09:11:17;5.30;99.90
40848;DHT22;26570;50.962;5.340;2023-02-26T09:14:03;5.50;99.90
40848;DHT22;26570;50.962;5.340;2023-02-26T09:16:48;5.70;99.90
40848;DHT22;26570;50.962;5.340;2023-02-26T09:19:33;4.90;99.90
40848;DHT22;26570;50.962;5.340;2023-02-26T09:22:18;6.40;99.90
40848;DHT22;26570;50.962;5.340;2023-02-26T09:25:04;6.60;99.90
40848;DHT22;26570;50.962;5.340;2023-02-26T09:27:49;6.60;99.90
40848;DHT22;26570;50.962;5.340;2023-02-26T09:30:34;6.80;99.90
40848;DHT22;26570;50.962;5.340;2023-02-26T09:33:20;6.80;99.90
40848;DHT22;26570;50.962;5.340;2023-02-26T09:36:05;7.00;99.90
40848;DHT22;26570;50.962;5.340;2023-02-26T09:38:50;7.00;99.90
40848;DHT22;26570;50.962;5.340;2023-02-26T09:41:38;7.30;99.90
40848;DHT22;26570;50.962;5.340;2023-02-26T09:44:47;7.40;99.90
40848;DHT22;26570;50.962;5.340;2023-02-26T09:48:04;7.10;99.90
40848;DHT22;26570;50.962;5.340;2023-02-26T09:50:52;6.90;99.90
40848;DHT22;26570;50.962;5.340;2023-02-26T09:53:40;6.60;99.90
40848;DHT22;26570;50.962;5.340;2023-02-26T09:56:25;6.80;99.90
40848;DHT22;26570;50.962;5.340;2023-02-26T09:59:12;6.50;99.90
40848;DHT22;26570;50.962;5.340;2023-02-26T10:02:13;6.00;99.90
40848;DHT22;26570;50.962;5.340;2023-02-26T10:08:17;5.70;99.90
40848;DHT22;26570;50.962;5.340;2023-02-26T10:14:03;5.10;99.90
40848;DHT22;26570;50.962;5.340;2023-02-26T10:16:56;5.20;99.90
40848;DHT22;26570;50.962;5.340;2023-02-26T10:19:48;5.00;99.90
40848;DHT22;26570;50.962;5.340;2023-02-26T10:22:42;5.20;99.90
40848;DHT22;26570;50.962;5.340;2023-02-26T10:32:36;5.90;99.90
40848;DHT22;26570;50.962;5.340;2023-02-26T10:35:28;5.80;99.90
40848;DHT22;26570;50.962;5.340;2023-02-26T10:38:18;5.70;99.90
40848;DHT22;26570;50.962;5.340;2023-02-26T10:41:09;5.90;99.90
40848;DHT22;26570;50.962;5.340;2023-02-26T10:44:32;5.80;99.90
40848;DHT22;26570;50.962;5.340;2023-02-26T10:50:52;5.80;99.90
40848;DHT22;26570;50.962;5.340;2023-02-26T10:53:38;5.80;99.90
40848;DHT22;26570;50.962;5.340;2023-02-26T10:56:45;5.70;99.90
40848;DHT22;26570;50.962;5.340;2023-02-26T10:59:30;5.50;99.90
40848;DHT22;26570;50.962;5.340;2023-02-26T11:02:39;5.70;99.90
40848;DHT22;26570;50.962;5.340;2023-02-26T11:05:29;5.80;99.90
40848;DHT22;26570;50.962;5.340;2023-02-26T11:08:29;6.10;99.90
40848;DHT22;26570;50.962;5.340;2023-02-26T11:14:25;6.10;99.90
40848;DHT22;26570;50.962;5.340;2023-02-26T11:17:33;6.20;99.50
40848;DHT22;26570;50.962;5.340;2023-02-26T11:20:44;6.40;99.60
40848;DHT22;26570;50.962;5.340;2023-02-26T11:24:00;6.70;99.90
40848;DHT22;26570;50.962;5.340;2023-02-26T11:27:02;6.70;98.70
40848;DHT22;26570;50.962;5.340;2023-02-26T11:29:53;6.80;98.30
40848;DHT22;26570;50.962;5.340;2023-02-26T11:32:38;6.80;98.40
40848;DHT22;26570;50.962;5.340;2023-02-26T11:35:24;6.80;98.10
40848;DHT22;26570;50.962;5.340;2023-02-26T11:38:17;6.80;97.80
40848;DHT22;26570;50.962;5.340;2023-02-26T11:41:04;6.80;99.00
40848;DHT22;26570;50.962;5.340;2023-02-26T11:44:00;7.10;98.90
40848;DHT22;26570;50.962;5.340;2023-02-26T11:46:54;7.20;98.10
40848;DHT22;26570;50.962;5.340;2023-02-26T11:49:44;7.40;97.00
40848;DHT22;26570;50.962;5.340;2023-02-26T11:52:45;7.50;96.70
40848;DHT22;26570;50.962;5.340;2023-02-26T11:55:37;7.70;97.40
40848;DHT22;26570;50.962;5.340;2023-02-26T11:58:39;7.60;95.10
40848;DHT22;26570;50.962;5.340;2023-02-26T12:01:48;7.50;95.40
40848;DHT22;26570;50.962;5.340;2023-02-26T12:04:37;7.50;96.20
40848;DHT22;26570;50.962;5.340;2023-02-26T12:07:23;7.40;94.50
40848;DHT22;26570;50.962;5.340;2023-02-26T12:10:24;7.10;94.30
40848;DHT22;26570;50.962;5.340;2023-02-26T12:13:30;7.10;95.40
40848;DHT22;26570;50.962;5.340;2023-02-26T12:16:30;7.00;95.40
40848;DHT22;26570;50.962;5.340;2023-02-26T12:25:46;6.80;95.20
40848;DHT22;26570;50.962;5.340;2023-02-26T12:34:45;7.20;93.70
40848;DHT22;26570;50.962;5.340;2023-02-26T12:43:58;7.50;95.10
40848;DHT22;26570;50.962;5.340;2023-02-26T12:50:25;7.60;94.00
40848;DHT22;26570;50.962;5.340;2023-02-26T13:00:22;7.50;92.10
40848;DHT22;26570;50.962;5.340;2023-02-26T13:10:58;7.90;93.00
40848;DHT22;26570;50.962;5.340;2023-02-26T13:17:13;7.20;91.90
40848;DHT22;26570;50.962;5.340;2023-02-26T13:23:20;7.60;92.80
40848;DHT22;26570;50.962;5.340;2023-02-26T13:26:10;7.40;93.00
40848;DHT22;26570;50.962;5.340;2023-02-26T13:29:07;7.40;92.70
40848;DHT22;26570;50.962;5.340;2023-02-26T13:32:25;7.40;93.60
40848;DHT22;26570;50.962;5.340;2023-02-26T13:35:31;7.50;92.20
40848;DHT22;26570;50.962;5.340;2023-02-26T13:38:47;7.90;92.30
40848;DHT22;26570;50.962;5.340;2023-02-26T13:48:00;8.00;91.80
40848;DHT22;26570;50.962;5.340;2023-02-26T13:54:47;8.20;91.10
40848;DHT22;26570;50.962;5.340;2023-02-26T14:01:31;7.80;91.20
40848;DHT22;26570;50.962;5.340;2023-02-26T14:04:25;7.30;91.90
40848;DHT22;26570;50.962;5.340;2023-02-26T14:07:14;7.30;91.20
40848;DHT22;26570;50.962;5.340;2023-02-26T14:10:03;7.20;90.50
40848;DHT22;26570;50.962;5.340;2023-02-26T14:13:31;7.10;89.00
40848;DHT22;26570;50.962;5.340;2023-02-26T14:16:22;7.00;90.80
40848;DHT22;26570;50.962;5.340;2023-02-26T14:25:32;7.40;90.40
40848;DHT22;26570;50.962;5.340;2023-02-26T14:28:53;7.50;90.90
40848;DHT22;26570;50.962;5.340;2023-02-26T14:34:40;7.70;90.40
40848;DHT22;26570;50.962;5.340;2023-02-26T14:37:30;7.70;89.00
40848;DHT22;26570;50.962;5.340;2023-02-26T14:44:32;7.70;87.10
40848;DHT22;26570;50.962;5.340;2023-02-26T14:47:19;7.60;87.40
40848;DHT22;26570;50.962;5.340;2023-02-26T14:50:05;7.60;88.90
40848;DHT22;26570;50.962;5.340;2023-02-26T14:53:18;7.70;88.60
40848;DHT22;26570;50.962;5.340;2023-02-26T14:56:21;7.60;89.70
40848;DHT22;26570;50.962;5.340;2023-02-26T15:15:27;7.40;89.80
40848;DHT22;26570;50.962;5.340;2023-02-26T15:21:19;6.50;91.00
40848;DHT22;26570;50.962;5.340;2023-02-26T15:24:11;6.60;91.60
40848;DHT22;26570;50.962;5.340;2023-02-26T15:27:00;6.60;91.60
40848;DHT22;26570;50.962;5.340;2023-02-26T15:29:48;6.70;91.40
40848;DHT22;26570;50.962;5.340;2023-02-26T15:32:36;6.70;92.20
40848;DHT22;26570;50.962;5.340;2023-02-26T15:35:27;6.90;92.30
40848;DHT22;26570;50.962;5.340;2023-02-26T15:38:15;7.00;91.50
40848;DHT22;26570;50.962;5.340;2023-02-26T15:41:02;7.10;91.80
40848;DHT22;26570;50.962;5.340;2023-02-26T15:43:51;7.00;91.40
40848;DHT22;26570;50.962;5.340;2023-02-26T15:46:42;6.80;90.70
40848;DHT22;26570;50.962;5.340;2023-02-26T15:49:33;6.80;90.10
40848;DHT22;26570;50.962;5.340;2023-02-26T15:52:26;6.70;90.30
40848;DHT22;26570;50.962;5.340;2023-02-26T15:55:15;6.60;91.10
40848;DHT22;26570;50.962;5.340;2023-02-26T15:58:01;6.70;91.40
40848;DHT22;26570;50.962;5.340;2023-02-26T16:00:53;6.80;91.40
40848;DHT22;26570;50.962;5.340;2023-02-26T16:03:38;6.70;92.10
40848;DHT22;26570;50.962;5.340;2023-02-26T16:06:35;7.00;91.40
40848;DHT22;26570;50.962;5.340;2023-02-26T16:09:40;7.10;91.10
40848;DHT22;26570;50.962;5.340;2023-02-26T16:12:37;6.90;90.50
40848;DHT22;26570;50.962;5.340;2023-02-26T16:15:32;6.90;91.10
40848;DHT22;26570;50.962;5.340;2023-02-26T16:18:23;6.70;92.20
40848;DHT22;26570;50.962;5.340;2023-02-26T16:21:19;6.80;91.20
40848;DHT22;26570;50.962;5.340;2023-02-26T16:24:14;6.60;90.90
40848;DHT22;26570;50.962;5.340;2023-02-26T16:27:04;6.50;92.10
40848;DHT22;26570;50.962;5.340;2023-02-26T16:29:55;6.60;92.00
40848;DHT22;26570;50.962;5.340;2023-02-26T16:32:40;6.80;91.20
40848;DHT22;26570;50.962;5.340;2023-02-26T16:35:32;6.50;92.40
40848;DHT22;26570;50.962;5.340;2023-02-26T16:38:25;6.40;92.10
40848;DHT22;26570;50.962;5.340;2023-02-26T16:41:12;6.30;92.70
40848;DHT22;26570;50.962;5.340;2023-02-26T16:43:59;6.30;92.70
40848;DHT22;26570;50.962;5.340;2023-02-26T16:46:45;6.00;93.40
40848;DHT22;26570;50.962;5.340;2023-02-26T16:49:33;6.10;92.70
40848;DHT22;26570;50.962;5.340;2023-02-26T16:52:22;5.80;94.10
40848;DHT22;26570;50.962;5.340;2023-02-26T16:55:10;5.40;94.40
40848;DHT22;26570;50.962;5.340;2023-02-26T16:58:05;5.40;95.00
40848;DHT22;26570;50.962;5.340;2023-02-26T17:01:13;5.40;95.20
40848;DHT22;26570;50.962;5.340;2023-02-26T17:04:04;5.50;95.30
40848;DHT22;26570;50.962;5.340;2023-02-26T17:06:51;5.40;95.70
40848;DHT22;26570;50.962;5.340;2023-02-26T17:09:39;5.20;96.10
40848;DHT22;26570;50.962;5.340;2023-02-26T17:12:46;5.20;96.70
40848;DHT22;26570;50.962;5.340;2023-02-26T17:15:36;4.90;97.40
40848;DHT22;26570;50.962;5.340;2023-02-26T17:18:44;4.90;97.30
40848;DHT22;26570;50.962;5.340;2023-02-26T17:21:30;4.90;97.60
40848;DHT22;26570;50.962;5.340;2023-02-26T17:24:19;4.70;98.00
40848;DHT22;26570;50.962;5.340;2023-02-26T17:27:08;4.70;98.40
40848;DHT22;26570;50.962;5.340;2023-02-26T17:30:21;4.50;98.90
40848;DHT22;26570;50.962;5.340;2023-02-26T17:33:12;4.40;99.70
40848;DHT22;26570;50.962;5.340;2023-02-26T17:36:02;4.30;99.90
40848;DHT22;26570;50.962;5.340;2023-02-26T17:38:48;4.20;99.90
40848;DHT22;26570;50.962;5.340;2023-02-26T17:41:34;5.20;99.80
40848;DHT22;26570;50.962;5.340;2023-02-26T17:44:21;4.30;99.90
40848;DHT22;26570;50.962;5.340;2023-02-26T17:47:26;4.20;99.90
40848;DHT22;26570;50.962;5.340;2023-02-26T17:50:37;4.10;99.90
40848;DHT22;26570;50.962;5.340;2023-02-26T17:53:28;4.00;99.90
40848;DHT22;26570;50.962;5.340;2023-02-26T17:56:30;3.90;99.90
40848;DHT22;26570;50.962;5.340;2023-02-26T17:59:38;3.80;99.90
40848;DHT22;26570;50.962;5.340;2023-02-26T18:02:24;3.60;99.90
40848;DHT22;26570;50.962;5.340;2023-02-26T18:05:11;3.50;99.90
40848;DHT22;26570;50.962;5.340;2023-02-26T18:07:56;3.60;99.90
40848;DHT22;26570;50.962;5.340;2023-02-26T18:11:04;3.50;99.90
40848;DHT22;26570;50.962;5.340;2023-02-26T18:13:49;3.40;99.90
40848;DHT22;26570;50.962;5.340;2023-02-26T18:16:37;3.40;99.90
40848;DHT22;26570;50.962;5.340;2023-02-26T18:19:23;3.40;99.90
40848;DHT22;26570;50.962;5.340;2023-02-26T18:22:12;3.30;99.90
40848;DHT22;26570;50.962;5.340;2023-02-26T18:25:20;3.20;99.90
40848;DHT22;26570;50.962;5.340;2023-02-26T18:28:05;3.10;99.90
40848;DHT22;26570;50.962;5.340;2023-02-26T18:30:56;3.00;99.90
40848;DHT22;26570;50.962;5.340;2023-02-26T18:34:04;2.60;99.90
40848;DHT22;26570;50.962;5.340;2023-02-26T18:36:49;3.00;99.90
40848;DHT22;26570;50.962;5.340;2023-02-26T18:39:34;2.90;99.90
40848;DHT22;26570;50.962;5.340;2023-02-26T18:42:26;2.80;99.90
40848;DHT22;26570;50.962;5.340;2023-02-26T18:45:14;2.60;99.90
40848;DHT22;26570;50.962;5.340;2023-02-26T18:48:22;2.50;99.90
40848;DHT22;26570;50.962;5.340;2023-02-26T18:51:08;2.50;99.90
40848;DHT22;26570;50.962;5.340;2023-02-26T18:53:56;2.60;99.90
40848;DHT22;26570;50.962;5.340;2023-02-26T18:56:41;2.60;99.90
40848;DHT22;26570;50.962;5.340;2023-02-26T18:59:29;2.30;99.90
40848;DHT22;26570;50.962;5.340;2023-02-26T19:02:15;3.10;99.90
40848;DHT22;26570;50.962;5.340;2023-02-26T19:05:00;2.20;99.90
40848;DHT22;26570;50.962;5.340;2023-02-26T19:07:46;2.20;99.90
40848;DHT22;26570;50.962;5.340;2023-02-26T19:10:32;2.10;99.90
40848;DHT22;26570;50.962;5.340;2023-02-26T19:13:17;1.90;99.90
40848;DHT22;26570;50.962;5.340;2023-02-26T19:16:04;1.80;99.90
40848;DHT22;26570;50.962;5.340;2023-02-26T19:19:11;1.70;99.90
40848;DHT22;26570;50.962;5.340;2023-02-26T19:22:00;1.50;99.90
40848;DHT22;26570;50.962;5.340;2023-02-26T19:25:08;1.40;99.90
40848;DHT22;26570;50.962;5.340;2023-02-26T19:27:54;1.30;99.90
40848;DHT22;26570;50.962;5.340;2023-02-26T19:30:40;1.20;99.90
40848;DHT22;26570;50.962;5.340;2023-02-26T19:33:26;1.10;99.90
40848;DHT22;26570;50.962;5.340;2023-02-26T19:36:11;1.00;99.90
40848;DHT22;26570;50.962;5.340;2023-02-26T19:39:04;0.90;99.90
40848;DHT22;26570;50.962;5.340;2023-02-26T19:41:49;0.80;99.90
40848;DHT22;26570;50.962;5.340;2023-02-26T19:45:03;0.90;99.90
40848;DHT22;26570;50.962;5.340;2023-02-26T19:47:48;0.90;99.90
40848;DHT22;26570;50.962;5.340;2023-02-26T19:50:34;0.90;99.90
40848;DHT22;26570;50.962;5.340;2023-02-26T19:53:23;0.80;99.90
40848;DHT22;26570;50.962;5.340;2023-02-26T19:56:08;0.70;99.90
40848;DHT22;26570;50.962;5.340;2023-02-26T19:58:54;0.50;99.90
40848;DHT22;26570;50.962;5.340;2023-02-26T20:01:39;0.50;99.90
40848;DHT22;26570;50.962;5.340;2023-02-26T20:04:25;0.40;99.90
40848;DHT22;26570;50.962;5.340;2023-02-26T20:07:17;0.40;99.90
40848;DHT22;26570;50.962;5.340;2023-02-26T20:10:02;0.30;99.90
40848;DHT22;26570;50.962;5.340;2023-02-26T20:12:48;0.30;99.90
40848;DHT22;26570;50.962;5.340;2023-02-26T20:15:33;0.30;99.90
40848;DHT22;26570;50.962;5.340;2023-02-26T20:18:19;0.30;99.90
40848;DHT22;26570;50.962;5.340;2023-02-26T20:21:11;0.30;99.90
40848;DHT22;26570;50.962;5.340;2023-02-26T20:23:57;0.50;99.90
40848;DHT22;26570;50.962;5.340;2023-02-26T20:27:05;0.70;99.90
40848;DHT22;26570;50.962;5.340;2023-02-26T20:29:50;0.70;99.90
40848;DHT22;26570;50.962;5.340;2023-02-26T20:32:36;0.80;99.90
40848;DHT22;26570;50.962;5.340;2023-02-26T20:35:22;0.80;99.90
40848;DHT22;26570;50.962;5.340;2023-02-26T20:38:11;0.90;99.90
40848;DHT22;26570;50.962;5.340;2023-02-26T20:40:57;1.10;99.90
40848;DHT22;26570;50.962;5.340;2023-02-26T20:43:42;1.10;99.90
40848;DHT22;26570;50.962;5.340;2023-02-26T20:46:28;1.20;99.90
40848;DHT22;26570;50.962;5.340;2023-02-26T20:49:17;1.20;99.90
40848;DHT22;26570;50.962;5.340;2023-02-26T20:52:08;1.30;99.90
40848;DHT22;26570;50.962;5.340;2023-02-26T20:54:54;1.30;99.90
40848;DHT22;26570;50.962;5.340;2023-02-26T20:57:40;1.30;99.90
40848;DHT22;26570;50.962;5.340;2023-02-26T21:00:27;1.40;99.90
40848;DHT22;26570;50.962;5.340;2023-02-26T21:03:35;1.50;99.90
40848;DHT22;26570;50.962;5.340;2023-02-26T21:06:20;1.50;99.90
40848;DHT22;26570;50.962;5.340;2023-02-26T21:09:07;1.60;99.90
40848;DHT22;26570;50.962;5.340;2023-02-26T21:11:57;1.70;99.90
40848;DHT22;26570;50.962;5.340;2023-02-26T21:14:42;1.80;99.90
40848;DHT22;26570;50.962;5.340;2023-02-26T21:17:28;1.80;99.90
40848;DHT22;26570;50.962;5.340;2023-02-26T21:20:39;1.80;99.90
40848;DHT22;26570;50.962;5.340;2023-02-26T21:23:24;1.80;99.90
40848;DHT22;26570;50.962;5.340;2023-02-26T21:26:12;1.80;99.90
40848;DHT22;26570;50.962;5.340;2023-02-26T21:28:58;1.90;99.90
40848;DHT22;26570;50.962;5.340;2023-02-26T21:31:44;1.90;99.90
40848;DHT22;26570;50.962;5.340;2023-02-26T21:34:32;1.90;99.90
40848;DHT22;26570;50.962;5.340;2023-02-26T21:37:18;2.00;99.90
40848;DHT22;26570;50.962;5.340;2023-02-26T21:40:04;1.90;99.90
40848;DHT22;26570;50.962;5.340;2023-02-26T21:42:50;1.80;99.90